KAMG/AMG METAR and TAF weather

Enter ICAO airport designator
Station Type Date Time Source
KAMG METAR 2020/10/20 16:53 UTC NOAA

KAMG 201653Z AUTO VRB03KT 10SM CLR 25/19 A3016 RMK AO2 SLP210 T02500194 $


Station Type Date Time Source
KAMG Decoded METAR 2020/10/20 16:53 UTC NOAA

ALMA BACON COUNTY AIRPORT, GA, United States (KAMG) 31-32N 82-30W 59M
Oct 20, 2020 - 12:53 PM EDT / 2020.10.20 1653 UTC
Wind: Variable at 3 MPH (3 KT):0
Visibility: 10 mile(s):0
Sky conditions: clear
Temperature: 77.0 F (25.0 C)
Dew Point: 66.9 F (19.4 C)
Relative Humidity: 71%
Pressure (altimeter): 30.16 in. Hg (1021 hPa)
ob: KAMG 201653Z AUTO VRB03KT 10SM CLR 25/19 A3016 RMK AO2 SLP210 T02500194
cycle: 17

Station Type Date Time Source
KAMG TAF UTC NOAA

Error!

Example: see airport list